Villa Carmela, Argentina
Current Conditions -  °F | °C
As of 9:00 AM on Friday 19 Dec 2014 (Local Time) from SANT Reporting Station
Clear Clear  
Wind Chill: 75°   Ceiling: Unl
Heat Index: 75°   Visibility: 6mi
Dew Point: 66°   Wind: 3mph
Humidity: 73%   Direction: 180°S
Pressure: 29.8"   Gusts: NA
Location:  26.75°S, 65.28°W
Report Text: SANT 191200Z 18003KT CAVOK 24/19 Q1009
Loading
Personal Weather Stations






























Interactive Weather Map New forecast layout! Learn more

10-Day Weather Forecast

Advertisements
Track Severe Weather on mobile